createdAt,value
2024-04-09T00:00:25.812Z,25.27
2024-04-09T00:03:33.245Z,23.10
2024-04-09T00:06:37.454Z,16.88
2024-04-09T00:09:46.926Z,14.87
2024-04-09T00:12:50.797Z,22.85
2024-04-09T00:15:55.181Z,19.42
2024-04-09T00:19:00.722Z,14.00
2024-04-09T00:22:04.744Z,12.48
2024-04-09T00:25:08.376Z,10.60
2024-04-09T00:28:12.774Z,14.05
2024-04-09T00:31:18.358Z,11.95
2024-04-09T00:34:24.316Z,12.90
2024-04-09T00:37:28.064Z,12.70
2024-04-09T00:40:31.518Z,19.00
2024-04-09T00:43:35.560Z,15.82
2024-04-09T00:46:39.036Z,12.63
2024-04-09T00:49:42.601Z,14.05
2024-04-09T00:52:50.045Z,15.43
2024-04-09T00:55:54.388Z,12.30
2024-04-09T00:58:57.888Z,13.95
2024-04-09T01:02:01.834Z,13.00
2024-04-09T01:05:07.029Z,12.60
2024-04-09T01:08:10.510Z,18.55
2024-04-09T01:11:14.038Z,17.00
2024-04-09T01:14:17.487Z,19.60
2024-04-09T01:17:21.344Z,17.00
2024-04-09T01:20:24.848Z,21.70
2024-04-09T01:23:28.329Z,19.80
2024-04-09T01:26:31.789Z,19.03
2024-04-09T01:29:35.248Z,16.92
2024-04-09T01:32:38.847Z,17.23
2024-04-09T01:35:42.372Z,14.75
2024-04-09T01:38:47.228Z,14.23
2024-04-09T01:41:50.728Z,16.67
2024-04-09T01:44:54.288Z,17.85
2024-04-09T01:47:57.981Z,12.25
2024-04-09T01:51:01.556Z,14.95
2024-04-09T01:54:05.944Z,14.50
2024-04-09T01:57:09.501Z,17.10
2024-04-09T02:00:13.718Z,16.90
2024-04-09T02:03:17.355Z,16.85
2024-04-09T02:06:22.068Z,13.82
2024-04-09T02:09:26.929Z,14.65
2024-04-09T02:12:30.569Z,15.80
2024-04-09T02:15:34.250Z,15.45
2024-04-09T02:18:38.606Z,15.77
2024-04-09T02:21:42.249Z,17.15
2024-04-09T02:24:45.988Z,15.30
2024-04-09T02:27:49.583Z,17.47
2024-04-09T02:30:53.113Z,15.20
2024-04-09T02:33:56.828Z,16.33
2024-04-09T02:37:00.320Z,16.17
2024-04-09T02:40:07.876Z,15.82
2024-04-09T02:43:11.412Z,13.67
2024-04-09T02:46:15.326Z,14.52
2024-04-09T02:49:18.822Z,13.60
2024-04-09T02:52:22.348Z,21.75
2024-04-09T02:55:25.827Z,16.23
2024-04-09T02:58:29.562Z,22.40
2024-04-09T03:01:33.162Z,21.52
2024-04-09T03:04:37.308Z,26.27
2024-04-09T03:07:40.847Z,27.42
2024-04-09T03:10:44.366Z,24.48
2024-04-09T03:13:51.105Z,20.90
2024-04-09T03:16:54.626Z,22.80
2024-04-09T03:19:58.164Z,22.10
2024-04-09T03:23:01.935Z,22.50
2024-04-09T03:26:07.974Z,20.88
2024-04-09T03:29:11.538Z,20.37
2024-04-09T03:32:15.022Z,21.48
2024-04-09T03:35:18.538Z,21.85
2024-04-09T03:38:22.321Z,21.15
2024-04-09T03:41:25.828Z,21.27
2024-04-09T03:44:29.322Z,21.60
2024-04-09T03:47:32.892Z,18.55
2024-04-09T03:50:38.657Z,19.85
2024-04-09T03:53:42.749Z,20.85
2024-04-09T03:56:46.204Z,22.02
2024-04-09T03:59:49.667Z,19.87
2024-04-09T04:02:53.104Z,21.45
2024-04-09T04:05:58.269Z,19.63
2024-04-09T04:09:01.934Z,17.15
2024-04-09T04:12:06.043Z,17.95
2024-04-09T04:15:11.260Z,16.37
2024-04-09T04:18:15.009Z,15.88
2024-04-09T04:21:23.274Z,16.63
2024-04-09T04:24:30.023Z,17.75
2024-04-09T04:27:33.719Z,16.48
2024-04-09T04:30:37.376Z,14.00
2024-04-09T04:33:42.185Z,13.32
2024-04-09T04:36:45.859Z,13.95
2024-04-09T04:39:49.431Z,12.35
2024-04-09T04:42:52.887Z,16.83
2024-04-09T04:45:56.669Z,16.50
2024-04-09T04:49:00.505Z,15.20
2024-04-09T04:52:05.562Z,16.30
2024-04-09T04:55:09.040Z,15.30
2024-04-09T04:58:12.515Z,19.90
2024-04-09T05:01:16.545Z,17.23
2024-04-09T05:04:20.268Z,17.70
2024-04-09T05:07:23.844Z,17.02
2024-04-09T05:10:27.438Z,17.52
2024-04-09T05:13:30.869Z,15.55
2024-04-09T05:16:34.369Z,15.23
2024-04-09T05:19:38.007Z,15.05
2024-04-09T05:22:43.308Z,15.75
2024-04-09T05:25:47.050Z,16.27
2024-04-09T05:28:50.574Z,15.50
2024-04-09T05:31:54.139Z,15.60
2024-04-09T05:34:58.108Z,12.95
2024-04-09T05:38:01.756Z,13.23
2024-04-09T05:41:06.268Z,14.23
2024-04-09T05:44:10.055Z,14.65
2024-04-09T05:47:13.728Z,15.87
2024-04-09T05:50:18.836Z,19.08
2024-04-09T05:53:22.718Z,29.67
2024-04-09T05:56:26.322Z,25.15
2024-04-09T05:59:31.757Z,22.08
2024-04-09T06:02:35.608Z,27.03
2024-04-09T06:05:39.622Z,23.90
2024-04-09T06:08:43.957Z,22.90
2024-04-09T06:11:48.289Z,19.55
2024-04-09T06:14:55.330Z,15.77
2024-04-09T06:17:59.006Z,13.30
2024-04-09T06:21:02.629Z,13.10
2024-04-09T06:24:08.605Z,16.05
2024-04-09T06:27:12.416Z,14.00
2024-04-09T06:30:17.600Z,18.45
2024-04-09T06:33:22.383Z,21.23
2024-04-09T06:36:28.225Z,21.10
2024-04-09T06:39:31.950Z,19.10
2024-04-09T06:42:35.579Z,14.05
2024-04-09T06:45:39.681Z,17.10
2024-04-09T06:48:43.395Z,17.03
2024-04-09T06:51:47.707Z,19.55
2024-04-09T06:54:51.696Z,20.90
2024-04-09T06:57:55.307Z,15.02
2024-04-09T07:00:58.908Z,28.88
2024-04-09T07:04:02.955Z,18.80
2024-04-09T07:07:06.617Z,20.92
2024-04-09T07:10:10.200Z,12.18
2024-04-09T07:13:13.876Z,22.50
2024-04-09T07:16:17.707Z,13.15
2024-04-09T07:19:21.213Z,14.93
2024-04-09T07:22:24.945Z,15.48
2024-04-09T07:25:28.920Z,21.95
2024-04-09T07:28:32.636Z,16.67
2024-04-09T07:31:37.518Z,18.17
2024-04-09T07:34:44.710Z,13.77
2024-04-09T07:37:48.218Z,21.38
2024-04-09T07:40:51.735Z,8.85
2024-04-09T07:43:57.134Z,7.05
2024-04-09T07:47:00.866Z,9.25
2024-04-09T07:50:10.597Z,8.77
2024-04-09T07:53:16.183Z,9.27
2024-04-09T07:56:21.542Z,7.43
2024-04-09T07:59:28.615Z,13.35
2024-04-09T08:02:32.389Z,9.10
2024-04-09T08:05:37.965Z,7.43
2024-04-09T08:08:43.410Z,10.40
2024-04-09T08:11:51.210Z,9.95
2024-04-09T08:14:54.796Z,9.02
2024-04-09T08:17:58.539Z,11.10
2024-04-09T08:21:04.225Z,8.83
2024-04-09T08:24:09.477Z,8.27
2024-04-09T08:27:16.328Z,9.77
2024-04-09T08:30:25.445Z,7.32
2024-04-09T08:33:29.300Z,8.98
2024-04-09T08:36:32.957Z,8.33
2024-04-09T08:39:37.110Z,8.65
2024-04-09T08:42:44.017Z,10.35
2024-04-09T08:45:49.265Z,8.35
2024-04-09T08:48:54.424Z,7.68
2024-04-09T08:52:02.760Z,8.60
2024-04-09T08:55:10.671Z,7.15
2024-04-09T08:58:17.144Z,15.18
2024-04-09T09:01:30.950Z,7.45
2024-04-09T09:04:38.484Z,7.68
2024-04-09T09:07:45.731Z,6.97
2024-04-09T09:11:10.592Z,9.18
2024-04-09T09:14:15.786Z,6.97
2024-04-09T09:17:19.298Z,6.80
2024-04-09T09:20:23.717Z,8.32
2024-04-09T09:23:27.337Z,6.97
2024-04-09T09:26:31.652Z,8.82
2024-04-09T09:29:35.432Z,11.85
2024-04-09T09:32:47.293Z,11.20
2024-04-09T09:35:52.318Z,8.88
2024-04-09T09:38:56.152Z,7.80
2024-04-09T09:42:02.439Z,6.88
2024-04-09T09:45:10.147Z,6.10
2024-04-09T09:48:14.612Z,7.32
2024-04-09T09:51:18.456Z,8.38
2024-04-09T09:54:24.201Z,12.73
2024-04-09T09:57:29.867Z,7.65
2024-04-09T10:00:37.301Z,8.07
2024-04-09T10:03:41.603Z,11.70
2024-04-09T10:07:04.869Z,5.95
2024-04-09T10:10:09.440Z,8.20
2024-04-09T10:13:13.099Z,5.25
2024-04-09T10:16:23.148Z,13.20
2024-04-09T10:19:38.713Z,6.40
2024-04-09T10:22:45.463Z,7.15
2024-04-09T10:25:49.031Z,7.23
2024-04-09T10:29:02.305Z,22.80
2024-04-09T10:32:19.449Z,7.28
2024-04-09T10:35:23.557Z,9.27
2024-04-09T10:38:27.589Z,5.70
2024-04-09T10:41:33.392Z,6.60
2024-04-09T10:44:36.978Z,10.00
2024-04-09T10:47:41.252Z,17.27
2024-04-09T10:50:44.892Z,8.77
2024-04-09T10:53:48.464Z,8.40
2024-04-09T10:57:01.372Z,6.60
2024-04-09T11:00:15.083Z,7.88
2024-04-09T11:03:23.294Z,14.77
2024-04-09T11:06:27.892Z,5.43
2024-04-09T11:09:31.680Z,18.17
2024-04-09T11:12:37.122Z,12.03
2024-04-09T11:15:44.091Z,12.65
2024-04-09T11:19:01.982Z,16.50
2024-04-09T11:22:08.177Z,8.85
2024-04-09T11:25:14.675Z,5.53
2024-04-09T11:28:18.332Z,6.10
2024-04-09T11:31:28.097Z,7.40
2024-04-09T11:34:34.398Z,5.40
2024-04-09T11:37:48.570Z,8.63
2024-04-09T11:40:52.549Z,8.07
2024-04-09T11:44:02.359Z,7.83
2024-04-09T11:47:05.991Z,9.18
2024-04-09T11:50:10.832Z,13.98
2024-04-09T11:53:19.966Z,13.32
2024-04-09T11:56:24.453Z,8.07
2024-04-09T11:59:28.022Z,6.70
2024-04-09T12:02:31.830Z,7.57
2024-04-09T12:05:35.387Z,9.13
2024-04-09T12:08:39.014Z,8.52
2024-04-09T12:11:42.611Z,7.70
2024-04-09T12:14:46.072Z,5.47
2024-04-09T12:17:49.685Z,11.25
2024-04-09T12:20:53.906Z,8.13
2024-04-09T12:23:57.988Z,7.88
2024-04-09T12:27:01.638Z,7.45
2024-04-09T12:30:09.739Z,7.20
2024-04-09T12:33:14.373Z,6.50
2024-04-09T12:36:17.974Z,12.70
2024-04-09T12:39:21.675Z,5.82
2024-04-09T12:42:27.947Z,9.27
2024-04-09T12:45:31.644Z,7.00
2024-04-09T12:48:35.534Z,6.22
2024-04-09T12:51:39.775Z,6.85
2024-04-09T12:54:43.528Z,4.78
2024-04-09T12:57:47.289Z,7.68
2024-04-09T13:01:05.367Z,11.57
2024-04-09T13:04:14.906Z,8.20
2024-04-09T13:07:20.087Z,8.50
2024-04-09T13:10:23.710Z,8.52
2024-04-09T13:13:27.713Z,4.75
2024-04-09T13:19:38.176Z,6.63
2024-04-09T13:22:42.617Z,5.57
2024-04-09T13:25:47.019Z,5.70
2024-04-09T13:28:50.937Z,7.20
2024-04-09T13:31:54.922Z,9.43
2024-04-09T13:34:58.833Z,5.80
2024-04-09T13:38:02.774Z,5.22
2024-04-09T13:41:06.357Z,9.27
2024-04-09T13:44:10.177Z,5.68
2024-04-09T13:47:13.862Z,6.23
2024-04-09T13:50:18.407Z,12.55
2024-04-09T13:53:22.315Z,6.10
2024-04-09T13:56:25.900Z,4.63
2024-04-09T13:59:32.754Z,4.40
2024-04-09T14:02:36.811Z,4.87
2024-04-09T14:05:40.405Z,5.28
2024-04-09T14:08:43.957Z,4.57
2024-04-09T14:11:47.709Z,3.90
2024-04-09T14:14:53.739Z,4.90
2024-04-09T14:17:58.806Z,7.57
2024-04-09T14:21:03.962Z,5.30
2024-04-09T14:24:08.063Z,5.65
2024-04-09T14:27:11.659Z,6.05
2024-04-09T14:30:15.867Z,6.00
2024-04-09T14:33:19.864Z,3.53
2024-04-09T14:36:23.491Z,3.97
2024-04-09T14:39:27.207Z,3.65
2024-04-09T14:42:30.756Z,4.63
2024-04-09T14:45:34.393Z,4.20
2024-04-09T14:48:38.035Z,5.10
2024-04-09T14:51:42.459Z,3.30
2024-04-09T14:54:50.039Z,4.30
2024-04-09T14:57:54.475Z,6.38
2024-04-09T15:00:58.297Z,5.22
2024-04-09T15:04:02.597Z,8.63
2024-04-09T15:07:06.396Z,3.63
2024-04-09T15:10:12.677Z,5.45
2024-04-09T15:13:16.461Z,10.30
2024-04-09T15:16:20.035Z,8.80
2024-04-09T15:19:23.547Z,4.63
2024-04-09T15:22:27.039Z,6.07
2024-04-09T15:25:30.789Z,7.82
2024-04-09T15:28:37.870Z,5.38
2024-04-09T15:31:42.200Z,6.03
2024-04-09T15:34:50.219Z,4.53
2024-04-09T15:37:54.129Z,7.25
2024-04-09T15:40:58.189Z,4.07
2024-04-09T15:44:01.817Z,8.57
2024-04-09T15:47:06.252Z,6.75
2024-04-09T15:50:09.948Z,6.37
2024-04-09T15:53:13.777Z,9.43
2024-04-09T15:56:18.238Z,6.43
2024-04-09T15:59:21.871Z,10.65
2024-04-09T16:02:25.542Z,8.95
2024-04-09T16:05:30.296Z,4.90
2024-04-09T16:08:34.503Z,9.32
2024-04-09T16:11:38.119Z,6.55
2024-04-09T16:14:45.909Z,4.43
2024-04-09T16:17:50.371Z,5.78
2024-04-09T16:21:02.315Z,4.77
2024-04-09T16:24:06.004Z,6.82
2024-04-09T16:27:09.885Z,3.95
2024-04-09T16:30:16.244Z,4.40
2024-04-09T16:33:19.910Z,6.10
2024-04-09T16:36:24.052Z,4.17
2024-04-09T16:39:28.008Z,5.60
2024-04-09T16:42:32.418Z,7.45
2024-04-09T16:45:36.008Z,4.88
2024-04-09T16:48:40.525Z,7.13
2024-04-09T16:51:44.725Z,5.53
2024-04-09T16:54:48.470Z,7.43
2024-04-09T16:57:51.927Z,13.38
2024-04-09T17:00:56.476Z,3.72
2024-04-09T17:04:00.224Z,4.88
2024-04-09T17:07:04.772Z,4.00
2024-04-09T17:10:11.661Z,3.92
2024-04-09T17:13:15.924Z,6.30
2024-04-09T17:16:19.962Z,4.78
2024-04-09T17:19:23.446Z,4.45
2024-04-09T17:22:27.801Z,4.53
2024-04-09T17:25:32.175Z,6.22
2024-04-09T17:28:35.708Z,4.53
2024-04-09T17:31:39.217Z,7.03
2024-04-09T17:34:42.719Z,3.78
2024-04-09T17:37:47.641Z,4.87
2024-04-09T17:40:51.174Z,6.45
2024-04-09T17:43:55.383Z,8.50
2024-04-09T17:46:58.924Z,15.07
2024-04-09T17:50:02.717Z,13.85
2024-04-09T17:53:06.310Z,9.40
2024-04-09T17:56:09.849Z,9.77
2024-04-09T17:59:13.727Z,12.18
2024-04-09T18:02:17.350Z,13.57
2024-04-09T18:05:21.542Z,11.60
2024-04-09T18:08:25.651Z,13.67
2024-04-09T18:11:29.737Z,13.15
2024-04-09T18:14:33.492Z,15.18
2024-04-09T18:17:38.751Z,12.82
2024-04-09T18:20:42.420Z,14.50
2024-04-09T18:23:48.912Z,15.13
2024-04-09T18:26:52.418Z,12.77
2024-04-09T18:29:56.250Z,17.88
2024-04-09T18:33:00.543Z,17.02
2024-04-09T18:36:06.302Z,9.98
2024-04-09T18:39:11.859Z,9.93
2024-04-09T18:42:15.427Z,9.93
2024-04-09T18:45:19.603Z,9.43
2024-04-09T18:48:23.409Z,12.20
2024-04-09T18:51:26.894Z,9.70
2024-04-09T18:54:30.969Z,12.23
2024-04-09T18:57:35.039Z,16.08
2024-04-09T19:00:38.877Z,12.07
2024-04-09T19:03:42.453Z,10.82
2024-04-09T19:06:46.535Z,7.85
2024-04-09T19:09:50.613Z,12.03
2024-04-09T19:12:55.648Z,12.93
2024-04-09T19:16:00.289Z,13.63
2024-04-09T19:19:05.544Z,11.13
2024-04-09T19:22:11.265Z,13.75
2024-04-09T19:25:15.793Z,15.73
2024-04-09T19:28:20.631Z,15.32
2024-04-09T19:31:27.062Z,12.70
2024-04-09T19:34:31.215Z,12.00
2024-04-09T19:37:37.568Z,10.45
2024-04-09T19:40:42.686Z,11.53
2024-04-09T19:43:46.885Z,14.88
2024-04-09T19:46:53.346Z,16.27
2024-04-09T19:50:00.391Z,12.05
2024-04-09T19:53:04.647Z,12.18
2024-04-09T19:56:08.887Z,12.93
2024-04-09T19:59:13.024Z,17.70
2024-04-09T20:02:22.854Z,16.63
2024-04-09T20:05:27.016Z,20.85
2024-04-09T20:08:32.682Z,13.60
2024-04-09T20:11:36.616Z,14.13
2024-04-09T20:14:42.874Z,12.90
2024-04-09T20:17:48.482Z,14.30
2024-04-09T20:20:54.681Z,15.27
2024-04-09T20:23:58.549Z,14.10
2024-04-09T20:27:02.424Z,17.27
2024-04-09T20:30:06.923Z,13.15
2024-04-09T20:33:10.887Z,15.18
2024-04-09T20:36:14.954Z,13.63
2024-04-09T20:39:25.312Z,10.70
2024-04-09T20:42:29.283Z,14.57
2024-04-09T20:45:33.438Z,13.15
2024-04-09T20:48:37.760Z,14.57
2024-04-09T20:51:41.741Z,16.40
2024-04-09T20:54:51.240Z,16.17
2024-04-09T20:57:55.984Z,12.63
2024-04-09T21:00:59.675Z,16.98
2024-04-09T21:04:03.763Z,14.48
2024-04-09T21:07:08.243Z,15.85
2024-04-09T21:10:17.770Z,13.52
2024-04-09T21:13:21.982Z,15.73
2024-04-09T21:16:26.017Z,14.88
2024-04-09T21:19:29.708Z,12.18
2024-04-09T21:22:33.304Z,9.60
2024-04-09T21:25:36.807Z,9.70
2024-04-09T21:28:40.342Z,11.00
2024-04-09T21:31:43.887Z,14.35
2024-04-09T21:34:50.795Z,15.32
2024-04-09T21:37:54.684Z,11.65
2024-04-09T21:41:24.346Z,11.23
2024-04-09T21:44:28.397Z,12.23
2024-04-09T21:47:32.241Z,9.98
2024-04-09T21:50:35.910Z,13.73
2024-04-09T21:53:39.822Z,10.18
2024-04-09T21:56:43.489Z,20.00
2024-04-09T21:59:47.107Z,19.43
2024-04-09T22:02:51.484Z,14.75
2024-04-09T22:05:55.029Z,18.45
2024-04-09T22:08:58.518Z,15.98
2024-04-09T22:12:02.129Z,10.13
2024-04-09T22:15:05.934Z,14.50
2024-04-09T22:18:09.970Z,10.75
2024-04-09T22:21:13.704Z,11.98
2024-04-09T22:24:17.694Z,15.10
2024-04-09T22:27:21.591Z,16.23
2024-04-09T22:30:25.139Z,16.10
2024-04-09T22:33:28.661Z,13.02
2024-04-09T22:36:32.429Z,14.15
2024-04-09T22:39:35.916Z,14.45
2024-04-09T22:42:39.677Z,16.20
2024-04-09T22:45:43.234Z,15.40
2024-04-09T22:48:47.834Z,13.25
2024-04-09T22:51:52.223Z,14.07
2024-04-09T22:54:55.893Z,14.60
2024-04-09T22:57:59.352Z,15.85
2024-04-09T23:01:07.733Z,12.73
2024-04-09T23:04:11.436Z,13.13
2024-04-09T23:07:15.554Z,16.20
2024-04-09T23:10:19.220Z,16.27
2024-04-09T23:13:22.716Z,16.60
2024-04-09T23:16:26.161Z,16.80
2024-04-09T23:19:30.344Z,14.25
2024-04-09T23:22:33.800Z,16.83
2024-04-09T23:25:37.274Z,17.42
2024-04-09T23:28:40.850Z,16.95
2024-04-09T23:31:44.605Z,18.63
2024-04-09T23:34:48.137Z,19.13
2024-04-09T23:37:51.703Z,18.80
2024-04-09T23:40:55.463Z,17.42
2024-04-09T23:43:59.042Z,17.75
2024-04-09T23:47:03.429Z,15.10
2024-04-09T23:50:08.279Z,22.15
2024-04-09T23:53:11.835Z,22.60
2024-04-09T23:56:15.367Z,16.77
2024-04-09T23:59:19.434Z,18.80
